Virtual LH

Virtual LH. There's no better way to fly
Since 2013.



AIRPORT MAP

METAR AND TAF INFORMATION

METAR FOR VOBL
ADDS - METARS form results

(0953 UTC 21 January 2019)
Data provider http://aviationweather.gov/metar/data/
 
METAR text: VOBL 210930Z 10009KT CAVOK 28/M02 Q1016 NOSIG
Conditions at: VOBL (BENGALURU , IN) observed 0930 UTC 21 January 2019
Temperature: 28.0°C (82°F)
Dewpoint: -2.0°C (28°F) [RH = 14%]
Pressure (altimeter): 30.00 inches Hg (1016.0 mb)
Winds: from the E (100 degrees) at 10 MPH (9 knots; 4.6 m/s)
Visibility: 6 or more miles (10+ km)
Ceiling: ceiling and visibility are OK
Clouds: unknown
Weather: no significant weather observed at this time

METAR text: VOBL 210900Z 10009KT 070V140 CAVOK 28/M03 Q1016 NOSIG
Conditions at: VOBL (BENGALURU , IN) observed 0900 UTC 21 January 2019
Temperature: 28.0°C (82°F)
Dewpoint: -3.0°C (27°F) [RH = 13%]
Pressure (altimeter): 30.00 inches Hg (1016.0 mb)
Winds: from the E (100 degrees) at 10 MPH (9 knots; 4.6 m/s)
Visibility: 6 or more miles (10+ km)
Ceiling: ceiling and visibility are OK
Clouds: unknown
Weather: no significant weather observed at this time

Forecast for: VOBL (BENGALURU , IN)
Text: TAF VOBL 210800Z 2109/2118 09010KT 6000 NSC
Forecast period: 0900 to 1800 UTC 21 January 2019
Forecast type: FROM: standard forecast or significant change
Winds: from the E (90 degrees) at 12 MPH (10 knots; 5.1 m/s)
Visibility: 4 miles (6 km)
Ceiling: unknown
Clouds: missing
Weather: no significant weather forecast for this period

RUNWAY INFORMATION

Runway 09 Runway length 13123 ft Runway width 148 ft
Runway elevation 3001 ft Runway displaced threshold 0 ft Runway heading 92
Runway 27 Runway length 13123 ft Runway width 148 ft
Runway elevation 2917 ft Runway displaced threshold 0 ft Runway heading 272

AIRPORT FREQUENCIES

Type APP Name Frequency 121.25 MHZ
Type ATIS Name Frequency 128.675 MHZ
Type DELIVERY Name Frequency 121.82 MHZ
Type SMC Name Frequency 121.65 MHZ
Type TOWER Name Frequency 124.35 MHZ

AIRPORT NEAR NAVIGATION AIDS